sensor_id;sensor_type;location;lat;lon;timestamp;P1;durP1;ratioP1;P2;durP2;ratioP2
78670;SDS011;68277;52.724;6.516;2023-06-04T00:01:32;1.55;;;0.90;;
78670;SDS011;68277;52.724;6.516;2023-06-04T00:03:57;1.98;;;0.90;;
78670;SDS011;68277;52.724;6.516;2023-06-04T00:06:23;2.55;;;1.45;;
78670;SDS011;68277;52.724;6.516;2023-06-04T00:08:48;1.25;;;0.88;;
78670;SDS011;68277;52.724;6.516;2023-06-04T00:11:14;3.90;;;1.35;;
78670;SDS011;68277;52.724;6.516;2023-06-04T00:13:39;1.85;;;1.15;;
78670;SDS011;68277;52.724;6.516;2023-06-04T00:16:05;2.15;;;1.13;;
78670;SDS011;68277;52.724;6.516;2023-06-04T00:18:32;2.13;;;1.30;;
78670;SDS011;68277;52.724;6.516;2023-06-04T00:20:57;1.73;;;0.77;;
78670;SDS011;68277;52.724;6.516;2023-06-04T00:23:23;2.83;;;0.95;;
78670;SDS011;68277;52.724;6.516;2023-06-04T00:25:48;3.53;;;0.98;;
78670;SDS011;68277;52.724;6.516;2023-06-04T00:28:14;3.13;;;0.82;;
78670;SDS011;68277;52.724;6.516;2023-06-04T00:30:40;0.88;;;0.52;;
78670;SDS011;68277;52.724;6.516;2023-06-04T00:33:05;2.00;;;0.95;;
78670;SDS011;68277;52.724;6.516;2023-06-04T00:35:31;1.80;;;0.88;;
78670;SDS011;68277;52.724;6.516;2023-06-04T00:37:57;1.65;;;0.85;;
78670;SDS011;68277;52.724;6.516;2023-06-04T00:40:23;1.58;;;1.10;;
78670;SDS011;68277;52.724;6.516;2023-06-04T00:42:48;2.92;;;0.93;;
78670;SDS011;68277;52.724;6.516;2023-06-04T00:45:14;2.78;;;1.55;;
78670;SDS011;68277;52.724;6.516;2023-06-04T00:47:43;1.58;;;0.80;;
78670;SDS011;68277;52.724;6.516;2023-06-04T00:50:09;1.55;;;0.70;;
78670;SDS011;68277;52.724;6.516;2023-06-04T00:52:34;4.70;;;1.45;;
78670;SDS011;68277;52.724;6.516;2023-06-04T00:55:00;2.50;;;1.08;;
78670;SDS011;68277;52.724;6.516;2023-06-04T00:57:27;2.55;;;0.82;;
78670;SDS011;68277;52.724;6.516;2023-06-04T00:59:53;1.40;;;0.73;;
78670;SDS011;68277;52.724;6.516;2023-06-04T01:02:19;2.33;;;0.93;;
78670;SDS011;68277;52.724;6.516;2023-06-04T01:07:28;1.73;;;0.85;;
78670;SDS011;68277;52.724;6.516;2023-06-04T01:09:55;1.10;;;0.77;;
78670;SDS011;68277;52.724;6.516;2023-06-04T01:12:21;1.92;;;0.80;;
78670;SDS011;68277;52.724;6.516;2023-06-04T01:14:47;1.73;;;0.98;;
78670;SDS011;68277;52.724;6.516;2023-06-04T01:17:33;4.35;;;1.10;;
78670;SDS011;68277;52.724;6.516;2023-06-04T01:27:47;3.90;;;1.05;;
78670;SDS011;68277;52.724;6.516;2023-06-04T01:30:14;2.45;;;1.42;;
78670;SDS011;68277;52.724;6.516;2023-06-04T01:35:08;5.45;;;1.58;;
78670;SDS011;68277;52.724;6.516;2023-06-04T01:37:36;3.38;;;1.50;;
78670;SDS011;68277;52.724;6.516;2023-06-04T01:40:02;4.63;;;1.52;;
78670;SDS011;68277;52.724;6.516;2023-06-04T01:42:28;1.67;;;0.90;;
78670;SDS011;68277;52.724;6.516;2023-06-04T01:44:54;1.92;;;1.05;;
78670;SDS011;68277;52.724;6.516;2023-06-04T01:47:20;1.27;;;0.77;;
78670;SDS011;68277;52.724;6.516;2023-06-04T01:49:45;2.25;;;1.38;;
78670;SDS011;68277;52.724;6.516;2023-06-04T01:52:11;1.50;;;0.88;;
78670;SDS011;68277;52.724;6.516;2023-06-04T01:54:36;3.67;;;1.55;;
78670;SDS011;68277;52.724;6.516;2023-06-04T01:59:29;3.47;;;1.30;;
78670;SDS011;68277;52.724;6.516;2023-06-04T02:01:57;2.33;;;0.90;;
78670;SDS011;68277;52.724;6.516;2023-06-04T02:04:22;8.80;;;2.35;;
78670;SDS011;68277;52.724;6.516;2023-06-04T02:06:49;3.40;;;2.00;;
78670;SDS011;68277;52.724;6.516;2023-06-04T02:09:15;3.20;;;1.30;;
78670;SDS011;68277;52.724;6.516;2023-06-04T02:11:41;2.53;;;1.52;;
78670;SDS011;68277;52.724;6.516;2023-06-04T02:14:06;2.80;;;1.48;;
78670;SDS011;68277;52.724;6.516;2023-06-04T02:16:32;3.05;;;1.45;;
78670;SDS011;68277;52.724;6.516;2023-06-04T02:18:57;2.10;;;1.45;;
78670;SDS011;68277;52.724;6.516;2023-06-04T02:21:24;2.75;;;1.65;;
78670;SDS011;68277;52.724;6.516;2023-06-04T02:23:49;5.95;;;2.10;;
78670;SDS011;68277;52.724;6.516;2023-06-04T02:26:15;7.57;;;2.15;;
78670;SDS011;68277;52.724;6.516;2023-06-04T02:28:41;2.60;;;1.13;;
78670;SDS011;68277;52.724;6.516;2023-06-04T02:31:06;2.17;;;1.33;;
78670;SDS011;68277;52.724;6.516;2023-06-04T02:33:32;2.90;;;1.00;;
78670;SDS011;68277;52.724;6.516;2023-06-04T02:35:57;1.77;;;1.17;;
78670;SDS011;68277;52.724;6.516;2023-06-04T02:38:23;5.70;;;1.70;;
78670;SDS011;68277;52.724;6.516;2023-06-04T02:40:52;2.35;;;1.25;;
78670;SDS011;68277;52.724;6.516;2023-06-04T02:43:21;5.00;;;1.90;;
78670;SDS011;68277;52.724;6.516;2023-06-04T02:45:46;2.67;;;1.33;;
78670;SDS011;68277;52.724;6.516;2023-06-04T02:48:12;6.90;;;2.28;;
78670;SDS011;68277;52.724;6.516;2023-06-04T02:50:37;3.38;;;1.73;;
78670;SDS011;68277;52.724;6.516;2023-06-04T02:53:03;4.70;;;1.27;;
78670;SDS011;68277;52.724;6.516;2023-06-04T02:55:28;4.32;;;1.92;;
78670;SDS011;68277;52.724;6.516;2023-06-04T02:57:54;2.47;;;1.20;;
78670;SDS011;68277;52.724;6.516;2023-06-04T03:00:19;4.68;;;1.38;;
78670;SDS011;68277;52.724;6.516;2023-06-04T03:02:45;3.33;;;1.30;;
78670;SDS011;68277;52.724;6.516;2023-06-04T03:05:13;2.33;;;1.40;;
78670;SDS011;68277;52.724;6.516;2023-06-04T03:07:41;5.13;;;2.40;;
78670;SDS011;68277;52.724;6.516;2023-06-04T03:10:08;5.65;;;1.90;;
78670;SDS011;68277;52.724;6.516;2023-06-04T03:12:35;4.47;;;2.42;;
78670;SDS011;68277;52.724;6.516;2023-06-04T03:15:01;3.05;;;1.00;;
78670;SDS011;68277;52.724;6.516;2023-06-04T03:17:27;2.50;;;1.80;;
78670;SDS011;68277;52.724;6.516;2023-06-04T03:19:53;2.33;;;1.13;;
78670;SDS011;68277;52.724;6.516;2023-06-04T03:22:18;1.67;;;1.00;;
78670;SDS011;68277;52.724;6.516;2023-06-04T03:24:44;3.88;;;1.35;;
78670;SDS011;68277;52.724;6.516;2023-06-04T03:27:10;3.75;;;1.50;;
78670;SDS011;68277;52.724;6.516;2023-06-04T03:29:39;3.00;;;1.33;;
78670;SDS011;68277;52.724;6.516;2023-06-04T03:32:06;5.13;;;1.55;;
78670;SDS011;68277;52.724;6.516;2023-06-04T03:34:32;1.98;;;1.38;;
78670;SDS011;68277;52.724;6.516;2023-06-04T03:36:58;4.05;;;1.35;;
78670;SDS011;68277;52.724;6.516;2023-06-04T03:39:26;2.17;;;1.20;;
78670;SDS011;68277;52.724;6.516;2023-06-04T03:41:51;6.13;;;1.50;;
78670;SDS011;68277;52.724;6.516;2023-06-04T03:44:20;4.45;;;1.33;;
78670;SDS011;68277;52.724;6.516;2023-06-04T03:49:14;3.25;;;1.25;;
78670;SDS011;68277;52.724;6.516;2023-06-04T03:51:43;3.78;;;2.10;;
78670;SDS011;68277;52.724;6.516;2023-06-04T03:54:09;2.38;;;1.38;;
78670;SDS011;68277;52.724;6.516;2023-06-04T03:59:01;5.53;;;2.38;;
78670;SDS011;68277;52.724;6.516;2023-06-04T04:01:27;2.55;;;1.10;;
78670;SDS011;68277;52.724;6.516;2023-06-04T04:03:54;3.50;;;1.70;;
78670;SDS011;68277;52.724;6.516;2023-06-04T04:06:20;4.55;;;1.73;;
78670;SDS011;68277;52.724;6.516;2023-06-04T04:08:46;1.63;;;0.95;;
78670;SDS011;68277;52.724;6.516;2023-06-04T04:11:18;7.07;;;1.80;;
78670;SDS011;68277;52.724;6.516;2023-06-04T04:13:44;1.48;;;0.73;;
78670;SDS011;68277;52.724;6.516;2023-06-04T04:16:11;6.32;;;2.85;;
78670;SDS011;68277;52.724;6.516;2023-06-04T04:18:37;8.10;;;2.58;;
78670;SDS011;68277;52.724;6.516;2023-06-04T04:21:03;4.25;;;1.48;;
78670;SDS011;68277;52.724;6.516;2023-06-04T04:23:30;7.65;;;2.28;;
78670;SDS011;68277;52.724;6.516;2023-06-04T04:25:57;4.72;;;2.10;;
78670;SDS011;68277;52.724;6.516;2023-06-04T04:28:26;3.95;;;2.05;;
78670;SDS011;68277;52.724;6.516;2023-06-04T04:30:54;5.38;;;1.40;;
78670;SDS011;68277;52.724;6.516;2023-06-04T04:33:22;3.20;;;1.70;;
78670;SDS011;68277;52.724;6.516;2023-06-04T04:35:50;4.95;;;2.05;;
78670;SDS011;68277;52.724;6.516;2023-06-04T04:38:19;2.22;;;1.45;;
78670;SDS011;68277;52.724;6.516;2023-06-04T04:40:53;6.45;;;2.83;;
78670;SDS011;68277;52.724;6.516;2023-06-04T04:43:31;4.25;;;1.95;;
78670;SDS011;68277;52.724;6.516;2023-06-04T04:46:01;3.88;;;1.95;;
78670;SDS011;68277;52.724;6.516;2023-06-04T04:48:27;4.60;;;2.65;;
78670;SDS011;68277;52.724;6.516;2023-06-04T04:50:53;6.72;;;2.22;;
78670;SDS011;68277;52.724;6.516;2023-06-04T04:53:19;6.68;;;3.05;;
78670;SDS011;68277;52.724;6.516;2023-06-04T04:55:45;6.43;;;2.28;;
78670;SDS011;68277;52.724;6.516;2023-06-04T04:58:11;4.45;;;1.63;;
78670;SDS011;68277;52.724;6.516;2023-06-04T05:00:37;3.97;;;2.08;;
78670;SDS011;68277;52.724;6.516;2023-06-04T05:03:03;2.67;;;1.42;;
78670;SDS011;68277;52.724;6.516;2023-06-04T05:05:28;6.75;;;2.25;;
78670;SDS011;68277;52.724;6.516;2023-06-04T05:07:54;3.28;;;1.48;;
78670;SDS011;68277;52.724;6.516;2023-06-04T05:10:25;5.82;;;2.22;;
78670;SDS011;68277;52.724;6.516;2023-06-04T05:12:52;5.68;;;1.95;;
78670;SDS011;68277;52.724;6.516;2023-06-04T05:15:20;5.70;;;1.90;;
78670;SDS011;68277;52.724;6.516;2023-06-04T05:17:47;4.13;;;1.90;;
78670;SDS011;68277;52.724;6.516;2023-06-04T05:20:14;5.93;;;1.63;;
78670;SDS011;68277;52.724;6.516;2023-06-04T05:22:42;2.95;;;1.67;;
78670;SDS011;68277;52.724;6.516;2023-06-04T05:25:09;4.32;;;2.33;;
78670;SDS011;68277;52.724;6.516;2023-06-04T05:27:35;8.38;;;2.78;;
78670;SDS011;68277;52.724;6.516;2023-06-04T05:30:02;4.18;;;1.55;;
78670;SDS011;68277;52.724;6.516;2023-06-04T05:32:28;9.32;;;2.42;;
78670;SDS011;68277;52.724;6.516;2023-06-04T05:34:57;5.45;;;2.05;;
78670;SDS011;68277;52.724;6.516;2023-06-04T05:37:26;3.63;;;1.52;;
78670;SDS011;68277;52.724;6.516;2023-06-04T05:39:55;4.68;;;2.35;;
78670;SDS011;68277;52.724;6.516;2023-06-04T05:42:21;2.78;;;1.48;;
78670;SDS011;68277;52.724;6.516;2023-06-04T05:44:49;5.45;;;2.10;;
78670;SDS011;68277;52.724;6.516;2023-06-04T05:47:17;7.82;;;2.60;;
78670;SDS011;68277;52.724;6.516;2023-06-04T05:49:43;8.82;;;2.33;;
78670;SDS011;68277;52.724;6.516;2023-06-04T05:52:09;3.88;;;1.95;;
78670;SDS011;68277;52.724;6.516;2023-06-04T05:54:35;3.17;;;1.60;;
78670;SDS011;68277;52.724;6.516;2023-06-04T05:57:03;5.50;;;2.13;;
78670;SDS011;68277;52.724;6.516;2023-06-04T05:59:29;5.68;;;1.80;;
78670;SDS011;68277;52.724;6.516;2023-06-04T06:01:55;8.25;;;1.83;;
78670;SDS011;68277;52.724;6.516;2023-06-04T06:04:22;7.80;;;2.38;;
78670;SDS011;68277;52.724;6.516;2023-06-04T06:06:47;4.10;;;1.50;;
78670;SDS011;68277;52.724;6.516;2023-06-04T06:11:40;4.90;;;2.13;;
78670;SDS011;68277;52.724;6.516;2023-06-04T06:14:07;6.35;;;1.92;;
78670;SDS011;68277;52.724;6.516;2023-06-04T06:16:33;4.35;;;2.13;;
78670;SDS011;68277;52.724;6.516;2023-06-04T06:18:59;3.95;;;1.75;;
78670;SDS011;68277;52.724;6.516;2023-06-04T06:23:51;3.85;;;2.08;;
78670;SDS011;68277;52.724;6.516;2023-06-04T06:26:16;3.88;;;2.15;;
78670;SDS011;68277;52.724;6.516;2023-06-04T06:28:47;4.97;;;1.90;;
78670;SDS011;68277;52.724;6.516;2023-06-04T06:31:14;2.72;;;1.77;;
78670;SDS011;68277;52.724;6.516;2023-06-04T06:33:40;7.47;;;1.95;;
78670;SDS011;68277;52.724;6.516;2023-06-04T06:36:06;5.53;;;1.75;;
78670;SDS011;68277;52.724;6.516;2023-06-04T06:38:34;7.15;;;2.55;;
78670;SDS011;68277;52.724;6.516;2023-06-04T06:41:00;4.18;;;2.10;;
78670;SDS011;68277;52.724;6.516;2023-06-04T06:43:25;3.28;;;1.95;;
78670;SDS011;68277;52.724;6.516;2023-06-04T06:45:51;3.42;;;2.03;;
78670;SDS011;68277;52.724;6.516;2023-06-04T06:48:16;3.30;;;2.60;;
78670;SDS011;68277;52.724;6.516;2023-06-04T06:50:42;2.97;;;1.35;;
78670;SDS011;68277;52.724;6.516;2023-06-04T06:53:07;3.03;;;1.67;;
78670;SDS011;68277;52.724;6.516;2023-06-04T06:55:33;4.22;;;1.88;;
78670;SDS011;68277;52.724;6.516;2023-06-04T06:57:59;1.92;;;1.40;;
78670;SDS011;68277;52.724;6.516;2023-06-04T07:00:25;3.15;;;1.50;;
78670;SDS011;68277;52.724;6.516;2023-06-04T07:02:53;5.38;;;1.25;;
78670;SDS011;68277;52.724;6.516;2023-06-04T07:05:19;3.13;;;1.58;;
78670;SDS011;68277;52.724;6.516;2023-06-04T07:07:44;2.78;;;1.23;;
78670;SDS011;68277;52.724;6.516;2023-06-04T07:10:11;5.65;;;1.80;;
78670;SDS011;68277;52.724;6.516;2023-06-04T07:12:38;3.38;;;1.58;;
78670;SDS011;68277;52.724;6.516;2023-06-04T07:15:04;1.42;;;1.05;;
78670;SDS011;68277;52.724;6.516;2023-06-04T07:19:56;2.85;;;1.42;;
78670;SDS011;68277;52.724;6.516;2023-06-04T07:22:21;3.00;;;1.80;;
78670;SDS011;68277;52.724;6.516;2023-06-04T07:24:51;1.55;;;0.80;;
78670;SDS011;68277;52.724;6.516;2023-06-04T07:27:17;3.65;;;1.20;;
78670;SDS011;68277;52.724;6.516;2023-06-04T07:29:44;2.42;;;1.27;;
78670;SDS011;68277;52.724;6.516;2023-06-04T07:32:09;4.20;;;1.88;;
78670;SDS011;68277;52.724;6.516;2023-06-04T07:34:35;2.58;;;1.00;;
78670;SDS011;68277;52.724;6.516;2023-06-04T07:37:02;3.03;;;1.10;;
78670;SDS011;68277;52.724;6.516;2023-06-04T07:39:28;6.03;;;1.98;;
78670;SDS011;68277;52.724;6.516;2023-06-04T07:41:53;3.00;;;1.55;;
78670;SDS011;68277;52.724;6.516;2023-06-04T07:44:19;2.10;;;1.20;;
78670;SDS011;68277;52.724;6.516;2023-06-04T07:46:46;4.30;;;1.50;;
78670;SDS011;68277;52.724;6.516;2023-06-04T07:49:11;2.22;;;1.55;;
78670;SDS011;68277;52.724;6.516;2023-06-04T07:51:37;4.05;;;1.15;;
78670;SDS011;68277;52.724;6.516;2023-06-04T07:54:02;1.95;;;1.10;;
78670;SDS011;68277;52.724;6.516;2023-06-04T07:56:28;1.35;;;0.77;;
78670;SDS011;68277;52.724;6.516;2023-06-04T07:58:54;4.10;;;1.40;;
78670;SDS011;68277;52.724;6.516;2023-06-04T08:01:20;2.15;;;1.08;;
78670;SDS011;68277;52.724;6.516;2023-06-04T08:03:46;2.42;;;1.23;;
78670;SDS011;68277;52.724;6.516;2023-06-04T08:06:12;6.88;;;1.42;;
78670;SDS011;68277;52.724;6.516;2023-06-04T08:08:43;1.90;;;1.20;;
78670;SDS011;68277;52.724;6.516;2023-06-04T08:11:16;2.33;;;1.10;;
78670;SDS011;68277;52.724;6.516;2023-06-04T08:13:41;2.60;;;0.80;;
78670;SDS011;68277;52.724;6.516;2023-06-04T08:16:07;3.33;;;1.52;;
78670;SDS011;68277;52.724;6.516;2023-06-04T08:18:41;3.60;;;1.30;;
78670;SDS011;68277;52.724;6.516;2023-06-04T08:21:08;3.85;;;1.73;;
78670;SDS011;68277;52.724;6.516;2023-06-04T08:23:35;2.70;;;1.23;;
78670;SDS011;68277;52.724;6.516;2023-06-04T08:26:04;2.50;;;1.25;;
78670;SDS011;68277;52.724;6.516;2023-06-04T08:28:33;1.55;;;1.00;;
78670;SDS011;68277;52.724;6.516;2023-06-04T08:30:58;3.03;;;1.10;;
78670;SDS011;68277;52.724;6.516;2023-06-04T08:33:23;3.22;;;0.90;;
78670;SDS011;68277;52.724;6.516;2023-06-04T08:35:49;2.70;;;1.00;;
78670;SDS011;68277;52.724;6.516;2023-06-04T08:38:14;2.00;;;0.93;;
78670;SDS011;68277;52.724;6.516;2023-06-04T08:40:40;12.85;;;2.25;;
78670;SDS011;68277;52.724;6.516;2023-06-04T08:43:05;3.22;;;1.00;;
78670;SDS011;68277;52.724;6.516;2023-06-04T08:45:32;3.05;;;1.35;;
78670;SDS011;68277;52.724;6.516;2023-06-04T08:47:58;2.42;;;1.17;;
78670;SDS011;68277;52.724;6.516;2023-06-04T08:50:25;2.03;;;0.98;;
78670;SDS011;68277;52.724;6.516;2023-06-04T08:52:55;4.90;;;1.48;;
78670;SDS011;68277;52.724;6.516;2023-06-04T08:55:21;3.07;;;1.07;;
78670;SDS011;68277;52.724;6.516;2023-06-04T08:57:49;2.00;;;0.95;;
78670;SDS011;68277;52.724;6.516;2023-06-04T09:00:15;1.65;;;0.73;;
78670;SDS011;68277;52.724;6.516;2023-06-04T09:05:11;3.72;;;1.20;;
78670;SDS011;68277;52.724;6.516;2023-06-04T09:07:44;2.45;;;0.98;;
78670;SDS011;68277;52.724;6.516;2023-06-04T09:10:13;5.22;;;1.13;;
78670;SDS011;68277;52.724;6.516;2023-06-04T09:12:43;3.50;;;1.20;;
78670;SDS011;68277;52.724;6.516;2023-06-04T09:15:11;2.30;;;0.93;;
78670;SDS011;68277;52.724;6.516;2023-06-04T09:17:36;5.28;;;0.80;;
78670;SDS011;68277;52.724;6.516;2023-06-04T09:20:02;2.22;;;1.02;;
78670;SDS011;68277;52.724;6.516;2023-06-04T09:22:34;1.80;;;0.80;;
78670;SDS011;68277;52.724;6.516;2023-06-04T09:25:03;1.25;;;0.70;;
78670;SDS011;68277;52.724;6.516;2023-06-04T09:27:42;1.70;;;0.70;;
78670;SDS011;68277;52.724;6.516;2023-06-04T09:30:07;2.15;;;0.90;;
78670;SDS011;68277;52.724;6.516;2023-06-04T09:32:36;2.90;;;1.42;;
78670;SDS011;68277;52.724;6.516;2023-06-04T09:35:11;1.60;;;0.68;;
78670;SDS011;68277;52.724;6.516;2023-06-04T09:37:41;3.03;;;0.90;;
78670;SDS011;68277;52.724;6.516;2023-06-04T09:40:09;2.55;;;0.90;;
78670;SDS011;68277;52.724;6.516;2023-06-04T09:42:42;2.08;;;0.80;;
78670;SDS011;68277;52.724;6.516;2023-06-04T09:45:08;2.08;;;0.70;;
78670;SDS011;68277;52.724;6.516;2023-06-04T09:47:44;2.72;;;1.00;;
78670;SDS011;68277;52.724;6.516;2023-06-04T09:50:10;1.98;;;1.00;;
78670;SDS011;68277;52.724;6.516;2023-06-04T09:52:37;1.98;;;0.70;;
78670;SDS011;68277;52.724;6.516;2023-06-04T09:55:14;1.65;;;0.85;;
78670;SDS011;68277;52.724;6.516;2023-06-04T09:57:48;2.97;;;0.90;;
78670;SDS011;68277;52.724;6.516;2023-06-04T10:00:22;1.55;;;0.70;;
78670;SDS011;68277;52.724;6.516;2023-06-04T10:02:58;4.35;;;0.98;;
78670;SDS011;68277;52.724;6.516;2023-06-04T10:05:28;2.42;;;0.80;;
78670;SDS011;68277;52.724;6.516;2023-06-04T10:07:57;2.50;;;0.90;;
78670;SDS011;68277;52.724;6.516;2023-06-04T10:10:28;1.30;;;0.65;;
78670;SDS011;68277;52.724;6.516;2023-06-04T10:13:00;1.20;;;0.75;;
78670;SDS011;68277;52.724;6.516;2023-06-04T10:15:28;0.68;;;0.40;;
78670;SDS011;68277;52.724;6.516;2023-06-04T10:17:55;1.00;;;0.55;;
78670;SDS011;68277;52.724;6.516;2023-06-04T10:20:21;1.90;;;0.75;;
78670;SDS011;68277;52.724;6.516;2023-06-04T10:22:47;1.73;;;0.85;;
78670;SDS011;68277;52.724;6.516;2023-06-04T10:25:13;2.35;;;0.82;;
78670;SDS011;68277;52.724;6.516;2023-06-04T10:27:40;3.38;;;1.13;;
78670;SDS011;68277;52.724;6.516;2023-06-04T10:30:06;3.10;;;1.10;;
78670;SDS011;68277;52.724;6.516;2023-06-04T10:32:32;5.57;;;1.13;;
78670;SDS011;68277;52.724;6.516;2023-06-04T10:35:03;2.38;;;1.23;;
78670;SDS011;68277;52.724;6.516;2023-06-04T10:37:33;1.27;;;0.85;;
78670;SDS011;68277;52.724;6.516;2023-06-04T10:39:59;3.08;;;0.90;;
78670;SDS011;68277;52.724;6.516;2023-06-04T10:42:25;1.02;;;0.80;;
78670;SDS011;68277;52.724;6.516;2023-06-04T10:44:52;3.00;;;0.82;;
78670;SDS011;68277;52.724;6.516;2023-06-04T10:47:20;5.25;;;1.00;;
78670;SDS011;68277;52.724;6.516;2023-06-04T10:50:06;1.55;;;0.82;;
78670;SDS011;68277;52.724;6.516;2023-06-04T10:52:36;1.00;;;0.65;;
78670;SDS011;68277;52.724;6.516;2023-06-04T10:55:05;3.45;;;1.40;;
78670;SDS011;68277;52.724;6.516;2023-06-04T10:57:34;1.10;;;0.60;;
78670;SDS011;68277;52.724;6.516;2023-06-04T11:00:01;1.02;;;0.70;;
78670;SDS011;68277;52.724;6.516;2023-06-04T11:02:31;1.70;;;0.70;;
78670;SDS011;68277;52.724;6.516;2023-06-04T11:05:00;1.02;;;0.50;;
78670;SDS011;68277;52.724;6.516;2023-06-04T11:07:44;1.17;;;0.70;;
78670;SDS011;68277;52.724;6.516;2023-06-04T11:10:11;3.53;;;1.15;;
78670;SDS011;68277;52.724;6.516;2023-06-04T11:12:47;4.53;;;0.93;;
78670;SDS011;68277;52.724;6.516;2023-06-04T11:15:17;2.65;;;0.90;;
78670;SDS011;68277;52.724;6.516;2023-06-04T11:17:52;2.65;;;0.80;;
78670;SDS011;68277;52.724;6.516;2023-06-04T11:20:18;2.17;;;0.85;;
78670;SDS011;68277;52.724;6.516;2023-06-04T11:22:52;1.77;;;0.85;;
78670;SDS011;68277;52.724;6.516;2023-06-04T11:25:19;3.35;;;0.80;;
78670;SDS011;68277;52.724;6.516;2023-06-04T11:27:47;2.92;;;1.30;;
78670;SDS011;68277;52.724;6.516;2023-06-04T11:30:13;2.20;;;0.93;;
78670;SDS011;68277;52.724;6.516;2023-06-04T11:32:39;0.90;;;0.50;;
78670;SDS011;68277;52.724;6.516;2023-06-04T11:35:05;2.28;;;0.70;;
78670;SDS011;68277;52.724;6.516;2023-06-04T11:37:32;1.45;;;0.60;;
78670;SDS011;68277;52.724;6.516;2023-06-04T11:39:58;1.42;;;0.60;;
78670;SDS011;68277;52.724;6.516;2023-06-04T11:42:26;2.22;;;0.90;;
78670;SDS011;68277;52.724;6.516;2023-06-04T11:44:56;4.10;;;1.00;;
78670;SDS011;68277;52.724;6.516;2023-06-04T11:47:23;1.98;;;0.60;;
78670;SDS011;68277;52.724;6.516;2023-06-04T11:49:56;1.73;;;0.60;;
78670;SDS011;68277;52.724;6.516;2023-06-04T11:52:23;1.38;;;0.70;;
78670;SDS011;68277;52.724;6.516;2023-06-04T11:54:48;1.52;;;0.70;;
78670;SDS011;68277;52.724;6.516;2023-06-04T11:57:14;2.63;;;1.45;;
78670;SDS011;68277;52.724;6.516;2023-06-04T11:59:40;2.97;;;1.40;;
78670;SDS011;68277;52.724;6.516;2023-06-04T12:02:06;2.45;;;0.80;;
78670;SDS011;68277;52.724;6.516;2023-06-04T12:04:33;3.33;;;0.98;;
78670;SDS011;68277;52.724;6.516;2023-06-04T12:06:59;1.98;;;0.98;;
78670;SDS011;68277;52.724;6.516;2023-06-04T12:09:27;2.22;;;0.95;;
78670;SDS011;68277;52.724;6.516;2023-06-04T12:12:02;3.95;;;0.98;;
78670;SDS011;68277;52.724;6.516;2023-06-04T12:14:29;3.42;;;0.90;;
78670;SDS011;68277;52.724;6.516;2023-06-04T12:17:05;1.08;;;0.70;;
78670;SDS011;68277;52.724;6.516;2023-06-04T12:19:32;2.70;;;1.35;;
78670;SDS011;68277;52.724;6.516;2023-06-04T12:24:27;1.70;;;0.95;;
78670;SDS011;68277;52.724;6.516;2023-06-04T12:27:00;1.55;;;0.60;;
78670;SDS011;68277;52.724;6.516;2023-06-04T12:29:27;6.63;;;1.67;;
78670;SDS011;68277;52.724;6.516;2023-06-04T12:32:00;2.13;;;0.80;;
78670;SDS011;68277;52.724;6.516;2023-06-04T12:34:27;1.83;;;0.90;;
78670;SDS011;68277;52.724;6.516;2023-06-04T12:36:52;2.83;;;0.90;;
78670;SDS011;68277;52.724;6.516;2023-06-04T12:39:18;4.22;;;0.63;;
78670;SDS011;68277;52.724;6.516;2023-06-04T12:41:46;1.88;;;0.80;;
78670;SDS011;68277;52.724;6.516;2023-06-04T12:44:12;3.22;;;0.95;;
78670;SDS011;68277;52.724;6.516;2023-06-04T12:46:38;2.55;;;1.20;;
78670;SDS011;68277;52.724;6.516;2023-06-04T12:49:04;1.60;;;0.80;;
78670;SDS011;68277;52.724;6.516;2023-06-04T12:53:57;0.98;;;0.80;;
78670;SDS011;68277;52.724;6.516;2023-06-04T12:56:22;2.38;;;1.15;;
78670;SDS011;68277;52.724;6.516;2023-06-04T12:58:48;1.83;;;1.17;;
78670;SDS011;68277;52.724;6.516;2023-06-04T13:01:14;1.60;;;0.80;;
78670;SDS011;68277;52.724;6.516;2023-06-04T13:06:05;3.08;;;0.90;;
78670;SDS011;68277;52.724;6.516;2023-06-04T13:08:31;2.63;;;0.90;;
78670;SDS011;68277;52.724;6.516;2023-06-04T13:10:58;1.73;;;0.80;;
78670;SDS011;68277;52.724;6.516;2023-06-04T13:13:24;1.38;;;0.68;;
78670;SDS011;68277;52.724;6.516;2023-06-04T13:15:49;1.05;;;0.60;;
78670;SDS011;68277;52.724;6.516;2023-06-04T13:18:15;4.13;;;1.02;;
78670;SDS011;68277;52.724;6.516;2023-06-04T13:20:41;1.75;;;1.00;;
78670;SDS011;68277;52.724;6.516;2023-06-04T13:23:07;2.50;;;0.90;;
78670;SDS011;68277;52.724;6.516;2023-06-04T13:28:02;4.07;;;1.20;;
78670;SDS011;68277;52.724;6.516;2023-06-04T13:30:28;1.02;;;0.52;;
78670;SDS011;68277;52.724;6.516;2023-06-04T13:32:53;1.30;;;0.70;;
78670;SDS011;68277;52.724;6.516;2023-06-04T13:35:19;1.33;;;0.68;;
78670;SDS011;68277;52.724;6.516;2023-06-04T13:37:45;2.88;;;0.90;;
78670;SDS011;68277;52.724;6.516;2023-06-04T13:40:11;1.80;;;0.90;;
78670;SDS011;68277;52.724;6.516;2023-06-04T13:42:38;1.25;;;0.75;;
78670;SDS011;68277;52.724;6.516;2023-06-04T13:45:03;3.90;;;1.00;;
78670;SDS011;68277;52.724;6.516;2023-06-04T13:47:29;2.50;;;0.88;;
78670;SDS011;68277;52.724;6.516;2023-06-04T13:49:55;3.83;;;1.10;;
78670;SDS011;68277;52.724;6.516;2023-06-04T13:52:20;1.35;;;0.80;;
78670;SDS011;68277;52.724;6.516;2023-06-04T13:54:46;3.30;;;0.75;;
78670;SDS011;68277;52.724;6.516;2023-06-04T13:57:15;1.77;;;0.70;;
78670;SDS011;68277;52.724;6.516;2023-06-04T13:59:41;1.27;;;0.73;;
78670;SDS011;68277;52.724;6.516;2023-06-04T14:02:06;1.88;;;0.88;;
78670;SDS011;68277;52.724;6.516;2023-06-04T14:04:32;2.20;;;0.90;;
78670;SDS011;68277;52.724;6.516;2023-06-04T14:07:01;1.45;;;0.80;;
78670;SDS011;68277;52.724;6.516;2023-06-04T14:09:26;2.83;;;0.88;;
78670;SDS011;68277;52.724;6.516;2023-06-04T14:11:52;2.42;;;0.90;;
78670;SDS011;68277;52.724;6.516;2023-06-04T14:14:17;2.17;;;1.10;;
78670;SDS011;68277;52.724;6.516;2023-06-04T14:16:47;2.42;;;0.88;;
78670;SDS011;68277;52.724;6.516;2023-06-04T14:19:12;2.40;;;0.77;;
78670;SDS011;68277;52.724;6.516;2023-06-04T14:24:05;2.42;;;1.00;;
78670;SDS011;68277;52.724;6.516;2023-06-04T14:26:31;1.98;;;0.90;;
78670;SDS011;68277;52.724;6.516;2023-06-04T14:28:57;1.52;;;0.90;;
78670;SDS011;68277;52.724;6.516;2023-06-04T14:31:22;3.67;;;1.33;;
78670;SDS011;68277;52.724;6.516;2023-06-04T14:33:48;2.92;;;0.98;;
78670;SDS011;68277;52.724;6.516;2023-06-04T14:36:14;2.90;;;1.02;;
78670;SDS011;68277;52.724;6.516;2023-06-04T14:38:40;1.67;;;0.75;;
78670;SDS011;68277;52.724;6.516;2023-06-04T14:41:06;1.42;;;0.80;;
78670;SDS011;68277;52.724;6.516;2023-06-04T14:43:31;3.38;;;1.13;;
78670;SDS011;68277;52.724;6.516;2023-06-04T14:45:58;1.70;;;1.10;;
78670;SDS011;68277;52.724;6.516;2023-06-04T14:48:25;4.07;;;1.05;;
78670;SDS011;68277;52.724;6.516;2023-06-04T14:50:50;2.38;;;1.00;;
78670;SDS011;68277;52.724;6.516;2023-06-04T14:53:18;2.15;;;1.10;;
78670;SDS011;68277;52.724;6.516;2023-06-04T14:55:44;1.95;;;0.90;;
78670;SDS011;68277;52.724;6.516;2023-06-04T14:58:11;1.92;;;0.82;;
78670;SDS011;68277;52.724;6.516;2023-06-04T15:00:37;2.88;;;0.80;;
78670;SDS011;68277;52.724;6.516;2023-06-04T15:03:02;1.83;;;1.40;;
78670;SDS011;68277;52.724;6.516;2023-06-04T15:05:29;4.40;;;1.02;;
78670;SDS011;68277;52.724;6.516;2023-06-04T15:07:56;3.17;;;1.15;;
78670;SDS011;68277;52.724;6.516;2023-06-04T15:10:21;1.60;;;1.00;;
78670;SDS011;68277;52.724;6.516;2023-06-04T15:12:47;5.47;;;0.90;;
78670;SDS011;68277;52.724;6.516;2023-06-04T15:15:12;2.97;;;1.00;;
78670;SDS011;68277;52.724;6.516;2023-06-04T15:17:38;1.98;;;1.00;;
78670;SDS011;68277;52.724;6.516;2023-06-04T15:20:03;6.13;;;2.05;;
78670;SDS011;68277;52.724;6.516;2023-06-04T15:24:55;5.32;;;1.88;;
78670;SDS011;68277;52.724;6.516;2023-06-04T15:27:20;3.85;;;2.38;;
78670;SDS011;68277;52.724;6.516;2023-06-04T15:29:46;5.85;;;3.00;;
78670;SDS011;68277;52.724;6.516;2023-06-04T15:32:12;8.80;;;4.20;;